createdAt,value
2023-04-07T00:00:52.060Z,30.00
2023-04-07T00:03:20.203Z,31.08
2023-04-07T00:05:48.335Z,31.13
2023-04-07T00:08:17.848Z,25.35
2023-04-07T00:10:45.670Z,24.75
2023-04-07T00:13:13.605Z,26.23
2023-04-07T00:15:41.805Z,24.60
2023-04-07T00:18:09.729Z,23.55
2023-04-07T00:20:38.584Z,28.42
2023-04-07T00:23:06.642Z,22.48
2023-04-07T00:25:35.972Z,19.27
2023-04-07T00:28:04.312Z,17.83
2023-04-07T00:30:32.382Z,15.85
2023-04-07T00:33:00.411Z,21.13
2023-04-07T00:35:28.788Z,20.67
2023-04-07T00:37:57.210Z,18.73
2023-04-07T00:40:25.480Z,18.85
2023-04-07T00:42:54.899Z,16.48
2023-04-07T00:45:23.275Z,15.13
2023-04-07T00:47:51.291Z,16.75
2023-04-07T00:50:20.150Z,20.13
2023-04-07T00:52:48.044Z,20.83
2023-04-07T00:55:16.052Z,20.10
2023-04-07T00:57:46.644Z,20.13
2023-04-07T01:00:16.832Z,21.33
2023-04-07T01:02:49.944Z,23.65
2023-04-07T01:05:21.664Z,20.08
2023-04-07T01:07:59.775Z,22.83
2023-04-07T01:10:32.254Z,22.48
2023-04-07T01:13:07.421Z,22.15
2023-04-07T01:15:38.152Z,21.80
2023-04-07T01:18:13.028Z,21.52
2023-04-07T01:20:41.606Z,23.58
2023-04-07T01:23:09.614Z,22.05
2023-04-07T01:25:56.233Z,21.13
2023-04-07T01:28:40.886Z,24.30
2023-04-07T01:31:11.051Z,21.45
2023-04-07T01:33:40.032Z,26.25
2023-04-07T01:36:08.873Z,27.95
2023-04-07T01:38:37.235Z,25.85
2023-04-07T01:41:05.792Z,21.45
2023-04-07T01:43:33.980Z,23.48
2023-04-07T01:46:03.203Z,24.90
2023-04-07T01:48:32.694Z,24.63
2023-04-07T01:51:01.871Z,24.80
2023-04-07T01:53:30.161Z,25.20
2023-04-07T01:55:58.348Z,28.83
2023-04-07T01:58:27.321Z,24.75
2023-04-07T02:00:55.448Z,28.90
2023-04-07T02:03:27.917Z,24.73
2023-04-07T02:05:59.651Z,21.58
2023-04-07T02:11:01.317Z,24.63
2023-04-07T02:13:34.474Z,23.30
2023-04-07T02:16:02.956Z,26.98
2023-04-07T02:18:32.468Z,26.17
2023-04-07T02:21:02.537Z,23.02
2023-04-07T02:23:30.360Z,26.95
2023-04-07T02:25:59.042Z,29.45
2023-04-07T02:28:27.192Z,33.05
2023-04-07T02:30:55.057Z,26.70
2023-04-07T02:33:23.028Z,26.58
2023-04-07T02:35:51.920Z,31.10
2023-04-07T02:38:21.028Z,31.00
2023-04-07T02:40:49.079Z,28.42
2023-04-07T02:43:19.096Z,33.22
2023-04-07T02:45:47.431Z,31.58
2023-04-07T02:48:15.440Z,40.22
2023-04-07T02:50:44.386Z,30.40
2023-04-07T02:53:12.342Z,28.33
2023-04-07T02:55:41.826Z,30.92
2023-04-07T02:58:09.713Z,33.72
2023-04-07T03:00:41.959Z,32.10
2023-04-07T03:03:22.720Z,34.30
2023-04-07T03:06:05.343Z,30.20
2023-04-07T03:08:35.179Z,35.85
2023-04-07T03:11:04.381Z,35.60
2023-04-07T03:13:32.568Z,44.58
2023-04-07T03:16:00.616Z,30.38
2023-04-07T03:18:33.973Z,34.05
2023-04-07T03:21:03.240Z,31.77
2023-04-07T03:23:32.203Z,31.77
2023-04-07T03:26:01.153Z,35.75
2023-04-07T03:28:35.000Z,33.65
2023-04-07T03:31:04.050Z,33.58
2023-04-07T03:33:32.068Z,29.88
2023-04-07T03:36:00.168Z,29.08
2023-04-07T03:38:28.126Z,34.88
2023-04-07T03:41:00.690Z,34.53
2023-04-07T03:43:29.012Z,35.20
2023-04-07T03:45:58.343Z,30.63
2023-04-07T03:48:28.733Z,39.85
2023-04-07T03:51:06.329Z,29.52
2023-04-07T03:53:35.844Z,28.65
2023-04-07T03:56:14.711Z,29.25
2023-04-07T03:58:46.858Z,32.38
2023-04-07T04:01:22.480Z,39.75
2023-04-07T04:03:52.186Z,29.27
2023-04-07T04:06:28.492Z,35.47
2023-04-07T04:09:04.037Z,25.70
2023-04-07T04:11:35.170Z,32.03
2023-04-07T04:14:06.576Z,34.80
2023-04-07T04:16:38.542Z,37.78
2023-04-07T04:19:15.119Z,32.05
2023-04-07T04:21:43.661Z,32.53
2023-04-07T04:24:11.779Z,34.40
2023-04-07T04:26:40.600Z,43.08
2023-04-07T04:29:12.780Z,32.97
2023-04-07T04:31:44.995Z,32.50
2023-04-07T04:34:13.223Z,29.25
2023-04-07T04:36:42.934Z,32.78
2023-04-07T04:39:11.097Z,25.38
2023-04-07T04:41:39.953Z,28.33
2023-04-07T04:44:09.280Z,33.88
2023-04-07T04:46:39.318Z,20.73
2023-04-07T04:49:09.160Z,27.27
2023-04-07T04:51:37.563Z,33.90
2023-04-07T04:54:13.501Z,22.92
2023-04-07T04:56:42.849Z,25.30
2023-04-07T04:59:11.549Z,40.03
2023-04-07T05:01:47.058Z,37.92
2023-04-07T05:04:19.328Z,29.20
2023-04-07T05:06:56.209Z,34.63
2023-04-07T05:09:28.447Z,36.80
2023-04-07T05:11:58.038Z,34.75
2023-04-07T05:14:27.100Z,29.55
2023-04-07T05:17:01.787Z,28.13
2023-04-07T05:19:32.516Z,30.55
2023-04-07T05:22:06.329Z,38.67
2023-04-07T05:24:42.196Z,25.10
2023-04-07T05:27:10.436Z,29.38
2023-04-07T05:29:39.371Z,30.70
2023-04-07T05:32:10.745Z,33.42
2023-04-07T05:34:40.227Z,31.02
2023-04-07T05:37:08.269Z,32.42
2023-04-07T05:39:36.435Z,33.42
2023-04-07T05:42:06.661Z,33.03
2023-04-07T05:44:36.762Z,23.88
2023-04-07T05:47:08.944Z,34.90
2023-04-07T05:49:45.826Z,31.98
2023-04-07T05:52:14.558Z,31.25
2023-04-07T05:54:45.264Z,32.67
2023-04-07T05:57:15.198Z,28.30
2023-04-07T05:59:45.878Z,28.35
2023-04-07T06:02:14.428Z,28.42
2023-04-07T06:04:43.888Z,31.55
2023-04-07T06:07:16.170Z,21.48
2023-04-07T06:09:44.823Z,23.13
2023-04-07T06:12:13.543Z,24.98
2023-04-07T06:14:41.414Z,34.70
2023-04-07T06:17:09.546Z,21.42
2023-04-07T06:19:37.617Z,15.18
2023-04-07T06:22:06.864Z,25.95
2023-04-07T06:24:34.842Z,22.25
2023-04-07T06:27:04.902Z,23.45
2023-04-07T06:29:34.338Z,23.98
2023-04-07T06:32:05.835Z,26.20
2023-04-07T06:34:33.753Z,21.38
2023-04-07T06:37:01.871Z,25.83
2023-04-07T06:39:31.813Z,27.48
2023-04-07T06:41:59.909Z,21.30
2023-04-07T06:44:27.732Z,21.65
2023-04-07T06:46:55.753Z,23.60
2023-04-07T06:49:23.800Z,20.23
2023-04-07T06:51:51.826Z,24.23
2023-04-07T06:54:19.653Z,17.13
2023-04-07T06:56:49.097Z,18.13
2023-04-07T06:59:17.082Z,19.48
2023-04-07T07:01:45.638Z,22.85
2023-04-07T07:04:13.755Z,20.45
2023-04-07T07:06:41.703Z,20.33
2023-04-07T07:09:09.807Z,21.33
2023-04-07T07:11:37.752Z,20.67
2023-04-07T07:14:06.941Z,16.60
2023-04-07T07:16:34.933Z,15.50
2023-04-07T07:19:02.983Z,16.35
2023-04-07T07:21:31.512Z,23.40
2023-04-07T07:23:59.436Z,20.08
2023-04-07T07:26:27.786Z,17.08
2023-04-07T07:28:55.670Z,18.67
2023-04-07T07:31:24.862Z,24.95
2023-04-07T07:33:52.839Z,18.25
2023-04-07T07:36:20.905Z,23.63
2023-04-07T07:38:52.207Z,18.60
2023-04-07T07:41:20.012Z,15.27
2023-04-07T07:43:48.312Z,20.42
2023-04-07T07:46:16.662Z,16.20
2023-04-07T07:48:46.608Z,21.58
2023-04-07T07:51:14.760Z,19.70
2023-04-07T07:53:42.507Z,20.77
2023-04-07T07:56:10.479Z,19.80
2023-04-07T07:58:38.596Z,18.58
2023-04-07T08:01:06.728Z,24.77
2023-04-07T08:03:34.822Z,24.70
2023-04-07T08:06:04.381Z,30.33
2023-04-07T08:08:32.462Z,24.50
2023-04-07T08:11:00.535Z,24.73
2023-04-07T08:13:28.297Z,21.25
2023-04-07T08:15:56.514Z,18.10
2023-04-07T08:18:25.467Z,18.23
2023-04-07T08:20:53.748Z,20.52
2023-04-07T08:23:23.350Z,18.33
2023-04-07T08:25:51.255Z,15.77
2023-04-07T08:28:19.070Z,16.63
2023-04-07T08:30:47.047Z,19.95
2023-04-07T08:33:15.722Z,21.55
2023-04-07T08:35:43.515Z,26.75
2023-04-07T08:38:11.764Z,25.55
2023-04-07T08:40:40.884Z,21.33
2023-04-07T08:43:10.562Z,22.33
2023-04-07T08:45:40.614Z,21.15
2023-04-07T08:48:14.289Z,19.95
2023-04-07T08:50:45.494Z,18.52
2023-04-07T08:53:14.918Z,20.65
2023-04-07T08:55:44.226Z,17.90
2023-04-07T08:58:13.420Z,17.58
2023-04-07T09:00:42.858Z,18.20
2023-04-07T09:03:11.824Z,17.45
2023-04-07T09:05:40.509Z,14.20
2023-04-07T09:08:08.309Z,24.73
2023-04-07T09:10:37.564Z,17.08
2023-04-07T09:13:06.754Z,13.60
2023-04-07T09:15:36.209Z,18.30
2023-04-07T09:18:05.433Z,14.70
2023-04-07T09:20:58.029Z,16.42
2023-04-07T09:23:30.871Z,10.82
2023-04-07T09:26:01.733Z,17.20
2023-04-07T09:28:44.449Z,10.63
2023-04-07T09:31:12.621Z,18.35
2023-04-07T09:33:40.507Z,17.00
2023-04-07T09:36:08.753Z,15.65
2023-04-07T09:38:37.867Z,14.38
2023-04-07T09:41:10.012Z,13.30
2023-04-07T09:43:40.606Z,16.10
2023-04-07T09:46:11.485Z,12.45
2023-04-07T09:48:40.039Z,9.10
2023-04-07T09:51:09.717Z,14.27
2023-04-07T09:53:45.503Z,11.07
2023-04-07T09:56:13.955Z,14.07
2023-04-07T09:58:41.962Z,14.85
2023-04-07T10:01:11.643Z,12.93
2023-04-07T10:03:39.794Z,12.80
2023-04-07T10:06:08.298Z,11.70
2023-04-07T10:08:38.187Z,14.43
2023-04-07T10:11:06.779Z,11.50
2023-04-07T10:13:38.478Z,10.88
2023-04-07T10:16:08.009Z,10.68
2023-04-07T10:18:38.168Z,9.55
2023-04-07T10:21:09.492Z,10.38
2023-04-07T10:23:50.541Z,16.95
2023-04-07T10:26:20.573Z,8.95
2023-04-07T10:28:52.327Z,13.05
2023-04-07T10:31:20.632Z,10.55
2023-04-07T10:33:52.100Z,10.50
2023-04-07T10:36:21.020Z,9.60
2023-04-07T10:39:20.608Z,11.32
2023-04-07T10:41:48.529Z,11.43
2023-04-07T10:44:46.743Z,8.98
2023-04-07T10:47:15.163Z,12.25
2023-04-07T10:50:20.466Z,13.13
2023-04-07T10:52:49.811Z,13.52
2023-04-07T10:55:37.740Z,10.45
2023-04-07T10:58:24.753Z,13.45
2023-04-07T11:01:23.364Z,9.27
2023-04-07T11:03:57.370Z,14.15
2023-04-07T11:06:27.801Z,8.07
2023-04-07T11:08:55.782Z,17.27
2023-04-07T11:11:39.012Z,16.20
2023-04-07T11:14:07.190Z,13.82
2023-04-07T11:16:40.044Z,13.73
2023-04-07T11:19:08.092Z,8.20
2023-04-07T11:21:37.865Z,9.00
2023-04-07T11:24:06.206Z,9.82
2023-04-07T11:26:39.360Z,12.82
2023-04-07T11:29:08.034Z,12.37
2023-04-07T11:31:36.412Z,10.27
2023-04-07T11:34:05.705Z,11.40
2023-04-07T11:36:34.935Z,20.45
2023-04-07T11:39:04.899Z,13.85
2023-04-07T11:41:33.985Z,15.80
2023-04-07T11:44:06.138Z,9.38
2023-04-07T11:46:34.011Z,7.95
2023-04-07T11:49:13.364Z,10.50
2023-04-07T11:51:42.241Z,6.95
2023-04-07T11:54:11.480Z,12.25
2023-04-07T11:56:44.623Z,13.55
2023-04-07T11:59:22.788Z,7.88
2023-04-07T12:01:52.352Z,13.80
2023-04-07T12:04:21.587Z,15.40
2023-04-07T12:06:50.537Z,12.30
2023-04-07T12:09:35.990Z,10.13
2023-04-07T12:12:05.790Z,11.23
2023-04-07T12:14:33.746Z,10.20
2023-04-07T12:17:03.250Z,9.77
2023-04-07T12:19:34.972Z,8.38
2023-04-07T12:22:02.978Z,16.90
2023-04-07T12:24:32.679Z,13.93
2023-04-07T12:27:00.612Z,10.35
2023-04-07T12:29:28.699Z,13.80
2023-04-07T12:31:57.563Z,7.45
2023-04-07T12:34:25.688Z,11.93
2023-04-07T12:36:53.543Z,12.98
2023-04-07T12:39:22.931Z,11.10
2023-04-07T12:41:53.355Z,13.30
2023-04-07T12:44:21.429Z,20.15
2023-04-07T12:46:49.350Z,12.15
2023-04-07T12:49:17.521Z,18.88
2023-04-07T12:51:46.119Z,20.45
2023-04-07T12:54:15.041Z,16.30
2023-04-07T12:56:43.085Z,15.88
2023-04-07T12:59:13.066Z,10.20
2023-04-07T13:01:41.305Z,10.07
2023-04-07T13:04:10.105Z,16.98
2023-04-07T13:06:38.190Z,11.68
2023-04-07T13:09:06.065Z,12.25
2023-04-07T13:11:33.889Z,12.27
2023-04-07T13:14:01.928Z,13.45
2023-04-07T13:16:31.708Z,9.93
2023-04-07T13:18:59.564Z,13.50
2023-04-07T13:21:45.412Z,11.82
2023-04-07T13:24:13.807Z,9.82
2023-04-07T13:26:41.796Z,10.85
2023-04-07T13:29:09.554Z,8.88
2023-04-07T13:31:38.727Z,16.40
2023-04-07T13:34:06.803Z,17.13
2023-04-07T13:36:34.768Z,16.77
2023-04-07T13:39:02.868Z,13.77
2023-04-07T13:41:31.837Z,13.38
2023-04-07T13:43:59.663Z,15.48
2023-04-07T13:46:29.175Z,11.75
2023-04-07T13:48:58.784Z,5.60
2023-04-07T13:51:28.164Z,12.77
2023-04-07T13:53:56.127Z,14.57
2023-04-07T13:56:24.021Z,13.75
2023-04-07T13:58:52.486Z,13.90
2023-04-07T14:01:20.440Z,10.07
2023-04-07T14:03:49.896Z,11.20
2023-04-07T14:06:22.951Z,10.88
2023-04-07T14:08:51.199Z,6.63
2023-04-07T14:11:19.344Z,15.63
2023-04-07T14:13:47.963Z,11.50
2023-04-07T14:16:15.987Z,11.52
2023-04-07T14:18:44.041Z,9.35
2023-04-07T14:21:11.957Z,12.45
2023-04-07T14:23:42.267Z,12.55
2023-04-07T14:26:11.733Z,9.27
2023-04-07T14:28:39.631Z,12.10
2023-04-07T14:31:07.468Z,11.55
2023-04-07T14:33:35.583Z,34.83
2023-04-07T14:36:03.444Z,26.77
2023-04-07T14:38:31.998Z,15.38
2023-04-07T14:43:35.642Z,19.37
2023-04-07T14:46:03.588Z,11.35
2023-04-07T14:48:32.694Z,16.10
2023-04-07T14:51:09.332Z,13.02
2023-04-07T14:53:37.574Z,15.13
2023-04-07T14:56:07.376Z,12.13
2023-04-07T14:58:37.525Z,14.05
2023-04-07T15:01:06.558Z,12.50
2023-04-07T15:03:34.928Z,17.23
2023-04-07T15:06:07.829Z,17.27
2023-04-07T15:08:38.635Z,17.20
2023-04-07T15:11:09.749Z,10.13
2023-04-07T15:13:37.829Z,15.80
2023-04-07T15:16:09.992Z,11.77
2023-04-07T15:18:40.400Z,17.13
2023-04-07T15:21:08.562Z,19.17
2023-04-07T15:23:38.782Z,18.90
2023-04-07T15:26:07.268Z,17.58
2023-04-07T15:28:36.671Z,18.75
2023-04-07T15:31:08.372Z,18.70
2023-04-07T15:33:36.809Z,13.38
2023-04-07T15:36:05.082Z,12.50
2023-04-07T15:38:33.624Z,14.80
2023-04-07T15:41:01.471Z,14.93
2023-04-07T15:43:30.471Z,12.35
2023-04-07T15:46:00.128Z,11.32
2023-04-07T15:48:28.057Z,14.20
2023-04-07T15:50:55.838Z,8.20
2023-04-07T15:53:26.808Z,10.35
2023-04-07T15:55:56.184Z,10.93
2023-04-07T15:58:24.047Z,9.75
2023-04-07T16:00:52.027Z,10.02
2023-04-07T16:03:21.520Z,9.07
2023-04-07T16:05:51.118Z,10.95
2023-04-07T16:08:19.105Z,11.95
2023-04-07T16:10:46.996Z,9.02
2023-04-07T16:13:15.469Z,12.60
2023-04-07T16:15:43.653Z,10.18
2023-04-07T16:18:12.563Z,13.18
2023-04-07T16:20:42.171Z,8.98
2023-04-07T16:23:10.061Z,13.68
2023-04-07T16:25:38.039Z,14.95
2023-04-07T16:28:05.898Z,8.60
2023-04-07T16:30:33.895Z,11.55
2023-04-07T16:33:01.903Z,10.35
2023-04-07T16:35:31.251Z,18.23
2023-04-07T16:38:04.073Z,16.70
2023-04-07T16:40:32.638Z,12.68
2023-04-07T16:43:00.598Z,17.55
2023-04-07T16:45:28.755Z,18.63
2023-04-07T16:47:56.920Z,15.18
2023-04-07T16:50:24.937Z,18.73
2023-04-07T16:52:52.997Z,19.42
2023-04-07T16:55:22.520Z,18.13
2023-04-07T16:57:50.725Z,17.02
2023-04-07T17:00:19.401Z,13.73
2023-04-07T17:02:47.570Z,19.52
2023-04-07T17:05:17.571Z,17.10
2023-04-07T17:07:45.561Z,16.67
2023-04-07T17:10:14.650Z,15.70
2023-04-07T17:12:44.168Z,16.02
2023-04-07T17:15:12.322Z,20.52
2023-04-07T17:17:40.528Z,19.35
2023-04-07T17:20:09.503Z,21.70
2023-04-07T17:22:37.582Z,16.27
2023-04-07T17:25:06.278Z,13.93
2023-04-07T17:27:34.140Z,17.90
2023-04-07T17:30:03.437Z,13.75
2023-04-07T17:32:31.691Z,15.77
2023-04-07T17:34:59.470Z,26.00
2023-04-07T17:37:27.716Z,19.00
2023-04-07T17:39:55.527Z,19.15
2023-04-07T17:42:23.478Z,17.08
2023-04-07T17:44:53.652Z,20.73
2023-04-07T17:47:22.972Z,22.70
2023-04-07T17:49:50.808Z,21.00
2023-04-07T17:52:18.834Z,19.75
2023-04-07T17:54:47.130Z,22.75
2023-04-07T17:57:15.979Z,24.10
2023-04-07T17:59:43.884Z,28.58
2023-04-07T18:02:12.080Z,30.10
2023-04-07T18:04:41.492Z,20.55
2023-04-07T18:07:09.974Z,21.05
2023-04-07T18:09:37.904Z,22.15
2023-04-07T18:12:06.321Z,27.38
2023-04-07T18:14:34.417Z,26.25
2023-04-07T18:17:02.449Z,28.00
2023-04-07T18:19:31.065Z,25.85
2023-04-07T18:22:00.939Z,28.88
2023-04-07T18:24:29.096Z,25.38
2023-04-07T18:26:57.112Z,26.65
2023-04-07T18:29:25.016Z,32.25
2023-04-07T18:31:53.055Z,33.67
2023-04-07T18:34:21.198Z,28.42
2023-04-07T18:36:49.277Z,30.27
2023-04-07T18:39:19.100Z,30.25
2023-04-07T18:41:48.382Z,35.50
2023-04-07T18:44:16.372Z,36.60
2023-04-07T18:46:46.127Z,27.73
2023-04-07T18:49:13.993Z,28.20
2023-04-07T18:51:42.263Z,28.55
2023-04-07T18:54:10.210Z,35.03
2023-04-07T18:56:39.817Z,30.33
2023-04-07T18:59:08.344Z,31.80
2023-04-07T19:01:36.721Z,41.40
2023-04-07T19:04:04.666Z,34.20
2023-04-07T19:06:33.007Z,29.35
2023-04-07T19:09:03.743Z,34.05
2023-04-07T19:11:31.805Z,33.22
2023-04-07T19:14:01.275Z,32.63
2023-04-07T19:16:29.157Z,33.65
2023-04-07T19:18:57.287Z,28.85
2023-04-07T19:21:25.553Z,40.72
2023-04-07T19:23:56.099Z,32.72
2023-04-07T19:26:24.423Z,38.85
2023-04-07T19:28:52.435Z,44.45
2023-04-07T19:31:22.340Z,45.50
2023-04-07T19:33:50.507Z,45.70
2023-04-07T19:36:18.995Z,44.15
2023-04-07T19:38:46.827Z,47.47
2023-04-07T19:41:14.760Z,37.72
2023-04-07T19:43:42.733Z,35.38
2023-04-07T19:46:10.701Z,41.13
2023-04-07T19:48:40.117Z,35.97
2023-04-07T19:51:08.169Z,41.13
2023-04-07T19:53:36.098Z,42.45
2023-04-07T19:56:04.760Z,46.05
2023-04-07T19:58:34.474Z,42.25
2023-04-07T20:01:04.412Z,46.63
2023-04-07T20:03:32.659Z,47.80
2023-04-07T20:06:02.028Z,50.17
2023-04-07T20:08:29.920Z,48.00
2023-04-07T20:10:57.784Z,43.00
2023-04-07T20:13:25.699Z,47.63
2023-04-07T20:15:53.912Z,43.45
2023-04-07T20:18:21.950Z,43.85
2023-04-07T20:20:50.182Z,48.33
2023-04-07T20:23:22.247Z,49.10
2023-04-07T20:25:50.088Z,49.25
2023-04-07T20:28:18.007Z,47.50
2023-04-07T20:30:45.983Z,43.42
2023-04-07T20:33:14.147Z,40.40
2023-04-07T20:35:42.007Z,48.63
2023-04-07T20:38:09.847Z,38.65
2023-04-07T20:40:39.649Z,44.10
2023-04-07T20:43:07.558Z,42.17
2023-04-07T20:45:35.431Z,55.60
2023-04-07T20:48:03.613Z,50.83
2023-04-07T20:50:31.837Z,54.65
2023-04-07T20:53:00.057Z,45.63
2023-04-07T20:55:28.780Z,49.22
2023-04-07T20:57:58.199Z,55.22
2023-04-07T21:00:26.088Z,42.97
2023-04-07T21:02:54.100Z,49.33
2023-04-07T21:05:22.458Z,48.45
2023-04-07T21:07:50.264Z,46.05
2023-04-07T21:10:18.089Z,48.88
2023-04-07T21:12:46.155Z,47.30
2023-04-07T21:15:15.716Z,50.13
2023-04-07T21:17:43.834Z,61.92
2023-04-07T21:20:12.651Z,43.90
2023-04-07T21:22:40.581Z,48.83
2023-04-07T21:25:09.291Z,48.45
2023-04-07T21:27:38.288Z,49.75
2023-04-07T21:30:06.957Z,60.30
2023-04-07T21:32:36.713Z,49.28
2023-04-07T21:35:04.937Z,50.42
2023-04-07T21:37:32.916Z,44.72
2023-04-07T21:40:00.732Z,53.83
2023-04-07T21:42:28.593Z,54.63
2023-04-07T21:44:57.141Z,49.22
2023-04-07T21:47:25.557Z,46.67
2023-04-07T21:49:54.847Z,49.83
2023-04-07T21:52:22.629Z,47.63
2023-04-07T21:54:50.798Z,44.22
2023-04-07T21:57:18.794Z,51.30
2023-04-07T21:59:46.657Z,40.13
2023-04-07T22:02:14.763Z,40.72
2023-04-07T22:04:42.724Z,41.05
2023-04-07T22:07:12.063Z,37.85
2023-04-07T22:09:40.035Z,41.55
2023-04-07T22:12:08.143Z,39.75
2023-04-07T22:14:36.059Z,39.17
2023-04-07T22:17:04.112Z,36.78
2023-04-07T22:19:31.896Z,39.00
2023-04-07T22:21:59.803Z,38.78
2023-04-07T22:24:29.355Z,35.53
2023-04-07T22:26:58.354Z,35.70
2023-04-07T22:29:26.244Z,30.02
2023-04-07T22:31:54.352Z,33.15
2023-04-07T22:34:22.208Z,30.88
2023-04-07T22:36:50.044Z,30.60
2023-04-07T22:39:17.814Z,31.90
2023-04-07T22:41:47.232Z,30.92
2023-04-07T22:44:15.286Z,33.60
2023-04-07T22:46:43.299Z,26.23
2023-04-07T22:49:11.858Z,32.83
2023-04-07T22:51:39.731Z,29.00
2023-04-07T22:54:07.528Z,29.40
2023-04-07T22:56:35.700Z,28.00
2023-04-07T22:59:06.358Z,28.45
2023-04-07T23:01:34.410Z,31.85
2023-04-07T23:04:02.249Z,30.25
2023-04-07T23:06:30.236Z,30.15
2023-04-07T23:08:58.370Z,30.77
2023-04-07T23:11:26.345Z,41.05
2023-04-07T23:13:54.316Z,49.03
2023-04-07T23:16:24.422Z,25.73
2023-04-07T23:18:52.504Z,29.88
2023-04-07T23:21:20.818Z,23.73
2023-04-07T23:23:48.898Z,23.15
2023-04-07T23:26:16.659Z,24.70
2023-04-07T23:28:44.467Z,25.02
2023-04-07T23:31:12.544Z,22.58
2023-04-07T23:33:41.738Z,21.05
2023-04-07T23:36:09.595Z,21.20
2023-04-07T23:38:39.678Z,22.08
2023-04-07T23:41:07.804Z,21.23
2023-04-07T23:43:35.758Z,25.20
2023-04-07T23:46:03.993Z,22.95
2023-04-07T23:48:31.971Z,25.70
2023-04-07T23:51:01.231Z,24.23
2023-04-07T23:53:29.043Z,21.92
2023-04-07T23:55:56.944Z,24.05
2023-04-07T23:58:24.675Z,21.95
